Time;durP1;ratioP1;P1;durP2;ratioP2;P2;SDS_P1;SDS_P2;PMS_P1;PMS_P2;Temp;Humidity;BMP_temperature;BMP_pressure;BME280_temperature;BME280_humidity;BME280_pressure;Samples;Min_cycle;Max_cycle;Signal;HPM_P1;HPM_P2
2022/11/26 00:00:20;;;;;;;5.85;1.70;;;4.90;99.90;;;;;;5053966;28;20106;-80
2022/11/26 00:02:46;;;;;;;5.38;2.10;;;4.90;99.90;;;;;;5054133;28;20076;-80
2022/11/26 00:05:14;;;;;;;9.77;2.13;;;6.20;99.90;;;;;;5055347;28;20079;-80
2022/11/26 00:07:42;;;;;;;5.72;2.47;;;4.90;99.90;;;;;;5040763;28;20085;-79
2022/11/26 00:10:19;;;;;;;7.22;2.30;;;5.00;99.90;;;;;;5041169;28;20040;-80
2022/11/26 00:12:46;;;;;;;8.88;2.58;;;4.90;99.90;;;;;;5042131;28;20119;-80
2022/11/26 00:15:16;;;;;;;4.50;1.80;;;5.00;99.90;;;;;;5041441;28;20055;-81
2022/11/26 00:17:42;;;;;;;6.93;2.28;;;5.00;99.90;;;;;;5057675;28;20060;-81
2022/11/26 00:20:08;;;;;;;6.90;2.22;;;5.00;99.90;;;;;;5041393;28;20048;-81
2022/11/26 00:22:40;;;;;;;7.13;2.05;;;4.90;99.90;;;;;;5057922;28;20052;-81
2022/11/26 00:25:12;;;;;;;8.05;2.38;;;4.90;99.90;;;;;;5058269;28;20036;-84
2022/11/26 00:27:37;;;;;;;6.20;2.40;;;4.90;99.90;;;;;;5086537;28;20044;-80
2022/11/26 00:30:30;;;;;;;8.90;2.55;;;5.00;99.90;;;;;;5056935;28;20056;-79
2022/11/26 00:32:57;;;;;;;8.98;2.60;;;4.90;99.90;;;;;;5054519;28;20051;-79
2022/11/26 00:35:23;;;;;;;6.78;2.30;;;4.90;99.90;;;;;;5057437;28;20048;-79
2022/11/26 00:37:55;;;;;;;6.90;2.40;;;5.50;99.90;;;;;;5055309;28;20045;-79
2022/11/26 00:40:30;;;;;;;4.75;2.25;;;4.90;99.90;;;;;;5054537;28;20044;-79
2022/11/26 00:42:56;;;;;;;15.15;3.05;;;4.90;99.90;;;;;;5053737;28;20033;-79
2022/11/26 00:45:28;;;;;;;9.68;4.03;;;4.60;99.90;;;;;;5037149;28;20037;-79
2022/11/26 00:47:54;;;;;;;8.90;2.97;;;5.10;99.90;;;;;;5041365;28;20069;-79
2022/11/26 00:50:22;;;;;;;7.70;3.05;;;4.90;99.90;;;;;;5052910;28;20125;-79
2022/11/26 00:52:51;;;;;;;7.07;2.20;;;5.40;99.90;;;;;;5073710;28;20044;-79
2022/11/26 00:55:28;;;;;;;6.20;2.20;;;4.90;99.90;;;;;;5057328;28;20044;-79
2022/11/26 00:57:54;;;;;;;;;;;4.90;99.90;;;;;;5057717;28;20111;-80
2022/11/26 01:00:23;;;;;;;10.93;3.40;;;4.90;99.90;;;;;;5057016;28;19927;-80
2022/11/26 01:02:48;;;;;;;15.88;3.20;;;4.90;99.90;;;;;;5057261;28;20074;-81
2022/11/26 01:05:15;;;;;;;6.20;3.00;;;4.90;99.90;;;;;;5040733;28;20098;-80
2022/11/26 01:07:42;;;;;;;6.07;2.40;;;5.30;99.90;;;;;;5057299;28;20043;-80
2022/11/26 01:10:20;;;;;;;7.03;2.58;;;4.80;99.90;;;;;;5056685;28;20040;-81
2022/11/26 01:12:46;;;;;;;7.90;2.60;;;4.90;99.90;;;;;;5057321;28;20140;-78
2022/11/26 01:15:13;;;;;;;9.07;2.83;;;4.90;99.90;;;;;;5057034;28;20076;-78
2022/11/26 01:17:39;;;;;;;6.82;2.83;;;4.90;99.90;;;;;;5036394;28;20041;-78
2022/11/26 01:20:20;;;;;;;8.73;2.70;;;5.50;99.90;;;;;;5061041;28;20366;-78
2022/11/26 01:22:46;;;;;;;9.15;2.95;;;4.90;99.90;;;;;;5036862;28;20048;-78
2022/11/26 01:25:12;;;;;;;9.07;2.97;;;4.80;99.90;;;;;;5036910;28;20377;-78
2022/11/26 01:27:38;;;;;;;13.43;3.28;;;4.80;99.90;;;;;;5069970;28;20079;-78
2022/11/26 01:30:12;;;;;;;12.52;2.90;;;4.80;99.90;;;;;;5061494;28;20044;-84
2022/11/26 01:32:37;;;;;;;6.65;2.50;;;4.80;99.90;;;;;;5021035;28;20083;-84
2022/11/26 01:35:04;;;;;;;10.68;2.75;;;5.60;99.90;;;;;;5021170;28;20053;-83
2022/11/26 01:37:29;;;;;;;5.75;2.20;;;4.80;99.90;;;;;;5019987;28;20041;-79
2022/11/26 01:39:55;;;;;;;5.90;2.00;;;4.80;99.90;;;;;;5005947;28;20074;-79
2022/11/26 01:42:36;;;;;;;7.65;2.42;;;5.60;99.90;;;;;;5055786;28;20068;-79
2022/11/26 01:45:19;;;;;;;4.85;2.40;;;4.80;99.90;;;;;;5055077;28;20029;-82
2022/11/26 01:47:47;;;;;;;4.88;2.33;;;4.80;99.90;;;;;;5054691;28;20364;-79
2022/11/26 01:50:31;;;;;;;6.95;2.53;;;4.80;99.90;;;;;;5039563;28;20522;-79
2022/11/26 01:53:28;;;;;;;5.78;1.95;;;5.00;99.90;;;;;;5053265;28;20051;-79
2022/11/26 01:56:01;;;;;;;4.03;1.88;;;5.10;99.90;;;;;;5075382;28;20040;-79
2022/11/26 01:58:36;;;;;;;8.48;2.22;;;5.20;99.90;;;;;;5055564;28;20044;-79
2022/11/26 02:01:02;;;;;;;7.97;2.30;;;4.70;99.90;;;;;;5055354;28;20028;-79
2022/11/26 02:03:32;;;;;;;7.63;2.50;;;4.70;99.90;;;;;;5039697;28;20033;-83
2022/11/26 02:06:03;;;;;;;6.90;2.60;;;4.80;99.90;;;;;;5056324;28;20040;-83
2022/11/26 02:08:31;;;;;;;7.45;2.38;;;4.80;99.90;;;;;;5055728;28;20047;-83
2022/11/26 02:10:56;;;;;;;9.20;2.45;;;4.80;99.90;;;;;;5039379;28;20068;-83
2022/11/26 02:13:23;;;;;;;9.60;2.15;;;4.80;99.90;;;;;;5055924;28;20149;-83
2022/11/26 02:16:08;;;;;;;7.38;2.88;;;4.80;99.90;;;;;;5055841;28;20048;-83
2022/11/26 02:18:39;;;;;;;7.50;3.17;;;4.90;99.90;;;;;;5033467;28;20049;-83
2022/11/26 02:21:11;;;;;;;6.63;2.20;;;4.80;99.90;;;;;;5043803;28;20054;-79
2022/11/26 02:23:57;;;;;;;7.40;2.50;;;4.80;99.90;;;;;;5051778;28;20119;-79
2022/11/26 02:26:45;;;;;;;8.20;2.63;;;4.80;99.90;;;;;;5050049;28;20044;-79
2022/11/26 02:29:22;;;;;;;6.68;1.95;;;4.70;99.90;;;;;;5040193;28;20041;-79
2022/11/26 02:32:02;;;;;;;13.85;2.05;;;4.70;99.90;;;;;;5052042;28;20080;-79
2022/11/26 02:35:01;;;;;;;6.25;2.03;;;4.60;99.90;;;;;;5051260;28;20052;-79
2022/11/26 02:37:35;;;;;;;8.95;2.60;;;4.60;99.90;;;;;;5045231;28;20045;-83
2022/11/26 02:40:02;;;;;;;8.43;2.10;;;4.60;99.90;;;;;;5032438;28;20041;-78
2022/11/26 02:42:30;;;;;;;5.13;2.15;;;4.70;99.90;;;;;;5024075;28;20041;-78
2022/11/26 02:45:17;;;;;;;13.38;2.55;;;5.10;99.90;;;;;;5050351;28;20048;-78
2022/11/26 02:47:46;;;;;;;8.15;2.53;;;4.80;99.90;;;;;;5051810;28;20068;-78
2022/11/26 02:50:17;;;;;;;5.63;2.22;;;4.80;99.90;;;;;;5035573;28;20056;-77
2022/11/26 02:52:43;;;;;;;6.82;1.92;;;4.80;99.90;;;;;;5051716;28;20041;-78
2022/11/26 02:55:12;;;;;;;11.27;3.00;;;4.80;99.90;;;;;;5051307;28;20094;-79
2022/11/26 02:57:45;;;;;;;10.35;2.70;;;4.80;99.90;;;;;;5051455;28;20080;-79
2022/11/26 03:00:11;;;;;;;10.50;2.67;;;4.80;99.90;;;;;;5051334;28;20056;-79
2022/11/26 03:03:07;;;;;;;5.95;2.20;;;4.70;99.90;;;;;;5051683;28;20124;-79
2022/11/26 03:05:35;;;;;;;6.45;2.20;;;4.80;99.90;;;;;;5051173;28;20041;-79
2022/11/26 03:08:03;;;;;;;13.15;2.97;;;4.80;99.90;;;;;;5050913;28;20049;-79
2022/11/26 03:10:29;;;;;;;9.73;2.95;;;5.10;99.90;;;;;;5042097;28;20041;-78
2022/11/26 03:12:55;;;;;;;8.00;3.03;;;4.80;99.90;;;;;;5031941;28;20048;-77
2022/11/26 03:15:21;;;;;;;9.57;2.90;;;4.80;99.90;;;;;;5035021;28;20392;-77
2022/11/26 03:17:47;;;;;;;14.40;2.95;;;4.80;99.90;;;;;;5026172;28;20068;-77
2022/11/26 03:20:13;;;;;;;8.07;2.17;;;4.80;99.90;;;;;;5051017;28;20095;-78
2022/11/26 03:22:39;;;;;;;10.88;2.97;;;6.10;99.90;;;;;;5034814;28;20049;-77
2022/11/26 03:25:05;;;;;;;9.88;2.70;;;4.80;99.90;;;;;;5051148;28;20037;-77
2022/11/26 03:27:31;;;;;;;11.85;3.30;;;4.80;99.90;;;;;;5033398;28;20056;-80
2022/11/26 03:29:57;;;;;;;7.15;2.10;;;4.70;99.90;;;;;;5040514;28;20484;-80
2022/11/26 03:32:22;;;;;;;6.63;2.30;;;4.80;99.90;;;;;;5051566;28;20052;-80
2022/11/26 03:34:48;;;;;;;7.18;2.08;;;4.70;99.90;;;;;;5051789;28;20052;-80
2022/11/26 03:37:14;;;;;;;7.72;2.50;;;4.70;99.90;;;;;;5031162;28;20041;-80
2022/11/26 03:39:39;;;;;;;11.57;2.53;;;4.70;99.90;;;;;;5035646;28;20045;-80
2022/11/26 03:42:05;;;;;;;6.15;2.53;;;4.70;99.90;;;;;;5055122;28;20039;-81
2022/11/26 03:44:31;;;;;;;5.38;2.53;;;5.20;99.90;;;;;;5054773;28;20044;-79
2022/11/26 03:46:57;;;;;;;16.80;2.70;;;4.80;99.90;;;;;;5054966;28;20504;-79
2022/11/26 03:49:22;;;;;;;8.35;2.50;;;4.80;99.90;;;;;;5021996;28;20053;-79
2022/11/26 03:51:48;;;;;;;6.88;2.55;;;4.80;99.90;;;;;;5020977;28;20033;-79
2022/11/26 03:54:14;;;;;;;6.07;2.20;;;4.90;99.90;;;;;;5034285;28;20371;-79
2022/11/26 03:56:40;;;;;;;10.13;3.22;;;5.00;99.90;;;;;;5037282;28;20481;-79
2022/11/26 03:59:06;;;;;;;4.63;1.98;;;5.60;99.90;;;;;;5037715;28;20075;-79
2022/11/26 04:01:32;;;;;;;10.48;2.40;;;5.50;99.90;;;;;;5041994;28;20043;-79
2022/11/26 04:03:58;;;;;;;12.20;3.47;;;5.10;99.90;;;;;;5053782;28;20419;-79
2022/11/26 04:06:23;;;;;;;8.48;2.35;;;4.80;99.90;;;;;;5038008;28;20397;-79
2022/11/26 04:08:49;;;;;;;5.57;2.30;;;4.70;99.90;;;;;;5038141;28;20384;-79
2022/11/26 04:11:15;;;;;;;6.18;2.75;;;4.70;99.90;;;;;;5054184;28;20044;-79
2022/11/26 04:13:41;;;;;;;4.63;2.80;;;6.20;99.90;;;;;;5054196;28;20045;-79
2022/11/26 04:16:07;;;;;;;6.55;2.58;;;4.80;99.90;;;;;;5034257;28;20071;-80
2022/11/26 04:18:32;;;;;;;9.32;2.45;;;4.70;99.90;;;;;;5036166;28;20085;-80
2022/11/26 04:20:58;;;;;;;9.05;2.47;;;5.60;99.90;;;;;;5021988;28;20440;-80
2022/11/26 04:23:34;;;;;;;8.50;2.90;;;4.60;99.90;;;;;;5027350;28;20062;-80
2022/11/26 04:26:00;;;;;;;8.85;3.13;;;4.70;99.90;;;;;;5041498;28;20123;-80
2022/11/26 04:28:26;;;;;;;9.15;2.78;;;4.80;99.90;;;;;;5058026;28;20145;-80
2022/11/26 04:30:51;;;;;;;5.18;2.58;;;4.50;99.90;;;;;;5058050;28;20047;-80
2022/11/26 04:33:17;;;;;;;7.85;2.95;;;4.40;99.90;;;;;;5057163;28;20044;-80
2022/11/26 04:35:43;;;;;;;7.20;2.55;;;4.40;99.90;;;;;;5040685;28;20048;-80
2022/11/26 04:38:09;;;;;;;8.02;3.00;;;4.30;99.90;;;;;;5041017;28;20036;-80
2022/11/26 04:40:35;;;;;;;6.90;2.42;;;4.20;99.90;;;;;;5023853;28;20174;-80
2022/11/26 04:43:01;;;;;;;8.48;2.35;;;4.20;99.90;;;;;;5049260;28;20040;-80
2022/11/26 04:45:26;;;;;;;5.68;2.45;;;4.20;99.90;;;;;;5056830;28;20055;-80
2022/11/26 04:47:53;;;;;;;8.68;2.67;;;4.80;99.90;;;;;;5057485;28;20133;-80
2022/11/26 04:50:19;;;;;;;7.18;3.08;;;4.20;99.90;;;;;;5040978;28;20044;-83
2022/11/26 04:52:47;;;;;;;6.00;2.65;;;4.20;99.90;;;;;;5051070;28;20060;-83
2022/11/26 04:55:13;;;;;;;6.03;2.35;;;4.40;99.90;;;;;;5058608;28;20115;-83
2022/11/26 04:57:39;;;;;;;7.57;2.60;;;4.10;99.90;;;;;;5037827;28;20059;-83
2022/11/26 05:00:06;;;;;;;7.75;2.33;;;4.10;99.90;;;;;;5037518;28;20461;-83
2022/11/26 05:02:32;;;;;;;5.65;2.90;;;4.10;99.90;;;;;;5054222;28;20072;-83
2022/11/26 05:04:58;;;;;;;5.47;2.53;;;4.10;99.90;;;;;;5090769;28;20113;-83
2022/11/26 05:07:23;;;;;;;7.10;2.38;;;4.00;99.90;;;;;;5040994;28;20040;-77
2022/11/26 05:09:49;;;;;;;4.93;2.40;;;4.40;99.90;;;;;;5056994;28;20087;-77
2022/11/26 05:12:15;;;;;;;11.73;3.08;;;3.90;99.90;;;;;;5056891;28;20043;-77
2022/11/26 05:14:40;;;;;;;5.45;2.28;;;4.40;99.90;;;;;;5056612;28;20044;-77
2022/11/26 05:17:06;;;;;;;7.40;2.33;;;4.80;99.90;;;;;;5056339;28;20098;-77
2022/11/26 05:19:33;;;;;;;5.43;2.53;;;3.90;99.90;;;;;;5036451;28;20049;-78
2022/11/26 05:21:59;;;;;;;4.93;2.50;;;3.90;99.90;;;;;;5053376;28;20079;-77
2022/11/26 05:24:24;;;;;;;5.13;2.80;;;3.90;99.90;;;;;;5036599;28;20068;-77
2022/11/26 05:26:50;;;;;;;7.13;2.28;;;5.00;99.90;;;;;;5013938;28;20475;-77
2022/11/26 05:29:16;;;;;;;5.90;2.83;;;5.00;99.90;;;;;;5039780;28;20037;-77
2022/11/26 05:31:42;;;;;;;7.10;2.50;;;3.80;99.90;;;;;;5056688;28;20051;-77
2022/11/26 05:34:07;;;;;;;8.85;3.22;;;3.80;99.90;;;;;;5056461;28;20082;-77
2022/11/26 05:36:33;;;;;;;8.63;3.10;;;5.20;99.90;;;;;;5038854;28;20110;-77
2022/11/26 05:38:59;;;;;;;5.97;2.60;;;3.80;99.90;;;;;;5051691;28;20037;-77
2022/11/26 05:41:24;;;;;;;13.88;3.60;;;3.90;99.90;;;;;;5039804;28;20544;-80
2022/11/26 05:43:50;;;;;;;11.75;3.80;;;3.90;99.90;;;;;;5043503;28;20392;-80
2022/11/26 05:46:17;;;;;;;9.77;3.10;;;3.90;99.90;;;;;;5055119;28;20089;-80
2022/11/26 05:48:43;;;;;;;8.43;2.65;;;3.90;99.90;;;;;;5056086;28;20051;-80
2022/11/26 05:51:09;;;;;;;9.23;2.88;;;4.60;99.90;;;;;;5046356;28;20044;-80
2022/11/26 05:53:35;;;;;;;6.88;2.20;;;3.80;99.90;;;;;;5073135;28;20133;-80
2022/11/26 05:56:01;;;;;;;6.80;2.70;;;3.70;99.90;;;;;;5061876;28;20052;-80
2022/11/26 05:58:26;;;;;;;8.15;2.80;;;3.70;99.90;;;;;;5039585;28;20040;-83
2022/11/26 06:00:52;;;;;;;8.02;3.03;;;3.70;99.90;;;;;;5039823;28;20047;-83
2022/11/26 06:03:18;;;;;;;8.50;2.90;;;3.70;99.90;;;;;;5039378;28;20048;-83
2022/11/26 06:05:44;;;;;;;9.70;3.05;;;3.70;99.90;;;;;;5047214;28;20044;-83
2022/11/26 06:08:10;;;;;;;12.68;3.72;;;4.20;99.90;;;;;;5052738;28;20072;-83
2022/11/26 06:10:36;;;;;;;5.78;2.70;;;5.30;99.90;;;;;;5046205;28;20051;-83
2022/11/26 06:13:02;;;;;;;8.15;3.40;;;3.70;99.90;;;;;;5056425;28;20055;-77
2022/11/26 06:15:27;;;;;;;6.97;3.10;;;3.70;99.90;;;;;;5055159;28;20048;-77
2022/11/26 06:17:53;;;;;;;8.15;3.05;;;3.70;99.90;;;;;;5055498;28;20051;-77
2022/11/26 06:20:19;;;;;;;5.05;2.45;;;3.70;99.90;;;;;;5038512;28;20056;-77
2022/11/26 06:22:44;;;;;;;5.03;2.67;;;3.60;99.90;;;;;;5022621;28;20076;-77
2022/11/26 06:25:13;;;;;;;5.43;2.47;;;3.60;99.90;;;;;;5055340;28;20376;-77
2022/11/26 06:27:39;;;;;;;9.82;3.22;;;3.60;99.90;;;;;;5038379;28;20492;-77
2022/11/26 06:30:08;;;;;;;9.52;2.58;;;3.50;99.90;;;;;;5038896;28;20082;-79
2022/11/26 06:32:33;;;;;;;15.80;3.65;;;3.50;99.90;;;;;;5054694;28;20414;-79
2022/11/26 06:34:59;;;;;;;6.82;3.22;;;3.60;99.90;;;;;;5038233;28;20049;-79
2022/11/26 06:37:25;;;;;;;8.52;2.88;;;3.50;99.90;;;;;;5054809;28;20040;-79
2022/11/26 06:39:51;;;;;;;5.82;2.50;;;4.00;99.90;;;;;;5054736;28;20094;-79
2022/11/26 06:42:17;;;;;;;8.70;2.85;;;3.60;99.90;;;;;;5053912;28;20064;-79
2022/11/26 06:44:42;;;;;;;7.13;2.90;;;3.50;99.90;;;;;;5037694;28;20125;-79
2022/11/26 06:47:12;;;;;;;8.63;3.42;;;3.50;99.90;;;;;;5054631;28;20082;-79
2022/11/26 06:49:38;;;;;;;8.30;3.17;;;3.70;99.90;;;;;;5039418;28;20056;-79
2022/11/26 06:52:05;;;;;;;11.95;2.92;;;4.10;99.90;;;;;;5032342;28;20043;-79
2022/11/26 06:54:30;;;;;;;7.63;2.65;;;3.60;99.90;;;;;;5055578;28;20094;-79
2022/11/26 06:56:56;;;;;;;6.13;2.97;;;3.60;99.90;;;;;;5055601;28;20084;-79
2022/11/26 06:59:22;;;;;;;6.03;3.47;;;4.20;99.90;;;;;;5038756;28;20041;-79
2022/11/26 07:01:48;;;;;;;11.40;4.13;;;3.70;99.90;;;;;;5037563;28;20563;-79
2022/11/26 07:04:13;;;;;;;9.82;3.67;;;3.80;99.90;;;;;;5054836;28;20419;-80
2022/11/26 07:06:40;;;;;;;9.90;3.70;;;3.90;99.90;;;;;;5038761;28;20037;-80
2022/11/26 07:09:08;;;;;;;6.38;3.50;;;4.00;99.90;;;;;;5038392;28;20476;-80
2022/11/26 07:11:35;;;;;;;12.82;3.67;;;4.60;99.90;;;;;;5038495;28;20127;-80
2022/11/26 07:14:01;;;;;;;6.88;3.25;;;4.20;99.90;;;;;;5034870;28;20497;-80
2022/11/26 07:16:27;;;;;;;12.23;3.70;;;4.20;99.90;;;;;;5029870;28;20044;-80
2022/11/26 07:18:54;;;;;;;12.80;3.75;;;4.30;99.90;;;;;;5054742;28;20045;-80
2022/11/26 07:21:21;;;;;;;7.90;3.13;;;4.60;99.90;;;;;;5054310;28;20442;-77
2022/11/26 07:23:47;;;;;;;7.18;3.13;;;4.20;99.90;;;;;;5053481;28;20559;-77
2022/11/26 07:26:14;;;;;;;8.40;3.28;;;4.50;99.90;;;;;;5054263;28;20388;-77
2022/11/26 07:28:40;;;;;;;9.50;3.95;;;4.20;99.90;;;;;;5054538;28;20044;-77
2022/11/26 07:31:11;;;;;;;9.77;4.25;;;4.30;99.90;;;;;;5054395;28;20041;-77
2022/11/26 07:33:37;;;;;;;5.85;3.40;;;4.30;99.90;;;;;;5054199;28;20124;-77
2022/11/26 07:36:06;;;;;;;11.68;3.47;;;4.90;99.90;;;;;;5054054;28;20106;-77
2022/11/26 07:38:32;;;;;;;7.68;3.15;;;4.30;99.90;;;;;;5072759;28;20037;-77
2022/11/26 07:41:03;;;;;;;9.27;4.18;;;5.90;99.90;;;;;;5077560;28;20559;-77
2022/11/26 07:43:36;;;;;;;10.55;3.80;;;4.40;99.90;;;;;;5047267;28;20036;-77
2022/11/26 07:46:04;;;;;;;7.97;3.58;;;4.40;99.90;;;;;;5086264;28;20381;-77
2022/11/26 07:48:30;;;;;;;6.55;3.30;;;4.50;99.90;;;;;;5067562;28;20094;-77
2022/11/26 07:50:57;;;;;;;9.32;4.38;;;4.60;99.90;;;;;;5072239;28;20044;-77
2022/11/26 07:53:22;;;;;;;9.30;3.58;;;4.80;99.90;;;;;;5053320;28;20043;-80
2022/11/26 07:55:48;;;;;;;9.25;4.30;;;5.20;99.90;;;;;;5054326;28;20036;-80
2022/11/26 07:58:14;;;;;;;8.43;3.42;;;5.00;99.90;;;;;;5052843;28;20461;-80
2022/11/26 08:00:39;;;;;;;9.30;3.80;;;5.10;99.90;;;;;;5054478;28;20148;-80
2022/11/26 08:03:05;;;;;;;9.00;4.50;;;5.80;99.90;;;;;;5053928;28;20037;-79
2022/11/26 08:05:31;;;;;;;17.23;5.95;;;6.40;99.90;;;;;;5053207;28;20114;-79
2022/11/26 08:07:59;;;;;;;12.80;4.43;;;5.70;99.90;;;;;;5037356;28;20040;-79
2022/11/26 08:10:24;;;;;;;11.77;4.03;;;7.20;99.90;;;;;;5055191;28;20051;-80
2022/11/26 08:12:51;;;;;;;7.53;3.63;;;5.50;99.90;;;;;;5066590;28;20032;-80
2022/11/26 08:15:16;;;;;;;17.98;4.60;;;5.60;99.90;;;;;;5044105;28;20036;-80
2022/11/26 08:17:42;;;;;;;14.15;4.78;;;5.60;99.90;;;;;;5061975;28;20429;-80
2022/11/26 08:20:09;;;;;;;9.90;4.28;;;5.60;99.90;;;;;;5044738;28;20060;-80
2022/11/26 08:22:34;;;;;;;16.38;4.03;;;5.70;99.90;;;;;;5046603;28;20047;-80
2022/11/26 08:25:00;;;;;;;15.60;4.18;;;5.80;99.90;;;;;;5050464;28;20037;-81
2022/11/26 08:27:26;;;;;;;9.80;5.10;;;6.00;99.90;;;;;;5036022;28;20041;-79
2022/11/26 08:29:51;;;;;;;14.48;4.60;;;6.60;99.90;;;;;;5039488;28;20045;-80
2022/11/26 08:32:17;;;;;;;10.15;4.10;;;6.20;99.90;;;;;;5060900;28;20037;-80
2022/11/26 08:34:43;;;;;;;10.98;3.92;;;7.90;99.90;;;;;;5079040;23;20165;-78
2022/11/26 08:37:08;;;;;;;12.85;3.95;;;6.30;99.90;;;;;;5083490;28;20385;-78
2022/11/26 08:39:34;;;;;;;10.63;4.13;;;6.30;99.90;;;;;;5075169;28;20397;-78
2022/11/26 08:42:00;;;;;;;9.13;3.13;;;6.80;99.90;;;;;;5072297;28;20488;-78
2022/11/26 08:44:25;;;;;;;11.50;4.25;;;6.40;99.90;;;;;;5074595;28;20033;-83
2022/11/26 08:46:51;;;;;;;8.82;3.90;;;6.50;99.90;;;;;;5073806;28;20429;-83
2022/11/26 08:49:17;;;;;;;9.10;3.33;;;6.60;99.90;;;;;;5074496;28;20045;-82
2022/11/26 08:51:43;;;;;;;14.45;4.97;;;6.80;99.90;;;;;;5057672;28;20079;-83
2022/11/26 08:54:09;;;;;;;8.95;3.90;;;7.30;99.90;;;;;;5073909;28;20034;-82
2022/11/26 08:56:35;;;;;;;12.85;3.72;;;7.10;99.90;;;;;;5072833;28;20119;-82
2022/11/26 08:59:01;;;;;;;12.68;4.05;;;7.40;99.90;;;;;;5073954;28;20120;-83
2022/11/26 09:01:31;;;;;;;11.35;3.80;;;7.50;99.90;;;;;;5073661;28;20044;-77
2022/11/26 09:03:59;;;;;;;11.32;4.65;;;7.50;99.90;;;;;;5073517;28;20551;-77
2022/11/26 09:06:27;;;;;;;11.35;4.13;;;7.60;99.90;;;;;;5073241;28;20048;-77
2022/11/26 09:09:11;;;;;;;13.00;4.38;;;7.50;99.90;;;;;;5073711;28;20063;-76
2022/11/26 09:11:41;;;;;;;11.60;3.67;;;7.70;99.90;;;;;;5073236;28;20048;-77
2022/11/26 09:14:10;;;;;;;12.18;4.35;;;7.70;99.90;;;;;;5073557;28;20043;-77
2022/11/26 09:16:36;;;;;;;9.30;3.60;;;8.30;99.90;;;;;;5072962;28;20098;-79
2022/11/26 09:19:05;;;;;;;7.15;3.65;;;7.80;99.90;;;;;;5072601;28;20404;-78
2022/11/26 09:21:32;;;;;;;18.35;4.30;;;7.90;99.90;;;;;;5056416;28;20040;-78
2022/11/26 09:23:58;;;;;;;7.88;3.88;;;7.80;99.90;;;;;;5072725;28;20052;-78
2022/11/26 09:26:24;;;;;;;14.98;3.35;;;7.90;99.90;;;;;;5072604;28;20047;-78
2022/11/26 09:28:50;;;;;;;9.68;3.53;;;8.10;99.90;;;;;;5072388;28;20040;-79
2022/11/26 09:31:17;;;;;;;7.35;3.20;;;8.00;99.90;;;;;;5073156;28;20044;-78
2022/11/26 09:33:43;;;;;;;9.00;3.47;;;8.10;99.90;;;;;;5072710;28;20085;-77
2022/11/26 09:36:12;;;;;;;94.50;12.25;;;8.30;99.90;;;;;;5055958;28;20513;-77
2022/11/26 09:38:38;;;;;;;17.80;5.05;;;8.50;99.90;;;;;;5072112;28;20044;-77
2022/11/26 09:41:19;;;;;;;15.00;4.05;;;8.60;99.90;;;;;;5072800;28;20037;-77
2022/11/26 09:44:21;;;;;;;8.40;3.50;;;8.70;99.90;;;;;;5072785;28;20044;-77
2022/11/26 09:47:12;;;;;;;9.43;4.10;;;8.80;99.90;;;;;;5055849;28;20039;-77
2022/11/26 09:49:59;;;;;;;8.73;3.63;;;8.70;99.90;;;;;;5064051;28;20040;-77
2022/11/26 09:52:27;;;;;;;;;;;8.60;99.90;;;;;;5072381;28;20048;-77
2022/11/26 09:55:19;;;;;;;11.07;4.53;;;8.40;99.90;;;;;;5072621;28;19927;-77
2022/11/26 09:58:06;;;;;;;9.77;3.72;;;8.20;99.90;;;;;;5041533;28;20045;-77
2022/11/26 10:00:35;;;;;;;;;;;8.10;99.90;;;;;;5055549;28;20094;-77
2022/11/26 10:03:23;;;;;;;12.95;4.03;;;8.00;99.90;;;;;;5072405;28;19921;-77
2022/11/26 10:06:06;;;;;;;11.10;3.67;;;8.00;99.90;;;;;;5072414;28;20055;-77
2022/11/26 10:08:53;;;;;;;14.50;4.00;;;7.90;99.90;;;;;;5071908;28;20048;-78
2022/11/26 10:11:50;;;;;;;8.93;4.25;;;7.80;99.90;;;;;;5071985;28;20378;-78
2022/11/26 10:14:15;;;;;;;11.68;3.90;;;7.80;99.90;;;;;;5071969;28;20119;-78
2022/11/26 10:17:18;;;;;;;10.75;3.97;;;7.90;99.90;;;;;;5056315;28;20560;-83
2022/11/26 10:19:57;;;;;;;11.30;3.22;;;7.90;99.90;;;;;;5072760;28;20419;-83
2022/11/26 10:22:50;;;;;;;13.65;4.00;;;8.00;99.90;;;;;;5072627;28;20090;-83
2022/11/26 10:25:23;;;;;;;12.40;3.95;;;8.10;99.90;;;;;;5056038;28;20085;-80
2022/11/26 10:27:50;;;;;;;12.60;3.40;;;8.00;99.90;;;;;;5053689;28;20041;-80
2022/11/26 10:30:28;;;;;;;10.52;3.58;;;8.10;99.90;;;;;;5072637;28;20032;-79
2022/11/26 10:32:58;;;;;;;9.65;4.05;;;8.10;99.90;;;;;;5071256;28;20051;-79
2022/11/26 10:35:27;;;;;;;8.45;3.50;;;8.20;99.90;;;;;;5073312;28;20056;-79
2022/11/26 10:37:54;;;;;;;7.57;3.60;;;8.40;99.90;;;;;;5074456;28;20127;-80
2022/11/26 10:40:24;;;;;;;7.13;3.40;;;8.30;99.90;;;;;;5074425;28;20031;-76
2022/11/26 10:43:16;;;;;;;14.15;4.38;;;8.40;99.90;;;;;;5074626;28;20044;-76
2022/11/26 10:45:45;;;;;;;9.35;3.92;;;8.70;99.90;;;;;;5074694;28;20071;-76
2022/11/26 10:48:19;;;;;;;9.93;3.60;;;8.50;99.90;;;;;;5082650;28;20027;-76
2022/11/26 10:51:05;;;;;;;8.60;3.05;;;8.50;99.90;;;;;;5080990;28;20114;-77
2022/11/26 10:53:56;;;;;;;9.93;3.60;;;8.50;99.90;;;;;;5076008;28;20050;-78
2022/11/26 10:56:30;;;;;;;9.68;3.85;;;8.50;99.90;;;;;;5075051;28;20067;-82
2022/11/26 10:59:01;;;;;;;9.10;3.25;;;8.60;99.90;;;;;;5075576;28;20040;-82
2022/11/26 11:01:37;;;;;;;9.07;4.18;;;8.60;99.90;;;;;;5058486;28;20040;-82
2022/11/26 11:04:23;;;;;;;10.38;4.45;;;8.70;99.90;;;;;;5075844;28;20143;-82
2022/11/26 11:06:49;;;;;;;15.43;3.80;;;8.70;99.90;;;;;;5076024;28;20050;-82
2022/11/26 11:09:36;;;;;;;10.77;4.03;;;8.70;99.90;;;;;;5075589;28;20403;-82
2022/11/26 11:12:19;;;;;;;9.60;3.42;;;8.80;99.90;;;;;;5075611;28;20051;-82
2022/11/26 11:14:46;;;;;;;12.35;4.43;;;8.80;99.90;;;;;;5075154;28;20058;-81
2022/11/26 11:17:28;;;;;;;11.45;3.97;;;8.90;99.90;;;;;;5075148;28;20353;-80
2022/11/26 11:19:56;;;;;;;11.90;4.72;;;8.90;99.90;;;;;;5115650;28;20051;-80
2022/11/26 11:22:22;;;;;;;14.65;4.70;;;9.10;99.90;;;;;;5080997;28;20036;-80
2022/11/26 11:24:48;;;;;;;13.02;4.10;;;9.10;99.90;;;;;;5057784;28;20115;-80
2022/11/26 11:27:38;;;;;;;16.13;4.40;;;9.10;99.90;;;;;;5074582;28;20133;-80
2022/11/26 11:30:05;;;;;;;13.10;4.25;;;9.30;99.90;;;;;;5058538;28;20055;-76
2022/11/26 11:32:39;;;;;;;12.55;4.00;;;9.40;99.90;;;;;;5074119;28;20185;-77
2022/11/26 11:35:25;;;;;;;65.43;12.82;;;9.50;99.90;;;;;;5073738;28;20079;-77
2022/11/26 11:37:53;;;;;;;17.23;5.38;;;9.50;99.90;;;;;;5059171;28;20047;-77
2022/11/26 11:40:27;;;;;;;9.38;4.00;;;9.50;99.90;;;;;;5073388;28;20039;-77
2022/11/26 11:43:02;;;;;;;15.98;4.32;;;9.60;99.90;;;;;;5073447;28;20109;-77
2022/11/26 11:45:40;;;;;;;9.07;4.30;;;9.60;99.90;;;;;;5074506;28;20043;-77
2022/11/26 11:48:35;;;;;;;12.02;3.97;;;9.70;99.90;;;;;;5071267;28;20123;-80
2022/11/26 11:51:27;;;;;;;8.63;3.80;;;9.70;99.90;;;;;;5061125;28;20124;-80
2022/11/26 11:54:11;;;;;;;13.95;3.95;;;9.70;99.90;;;;;;5054433;28;20442;-80
2022/11/26 11:56:48;;;;;;;16.58;4.07;;;9.80;99.90;;;;;;5061786;28;20040;-81
2022/11/26 11:59:46;;;;;;;11.55;4.45;;;9.80;99.90;;;;;;5075223;28;20111;-80
2022/11/26 12:02:11;;;;;;;;;;;9.70;99.90;;;;;;5078762;28;20173;-80
2022/11/26 12:04:52;;;;;;;15.63;3.80;;;9.70;99.90;;;;;;5078228;28;19930;-79
2022/11/26 12:07:39;;;;;;;9.93;3.95;;;9.60;99.90;;;;;;5077289;28;20093;-79
2022/11/26 12:10:08;;;;;;;;;;;9.60;99.90;;;;;;5078543;28;20126;-79
2022/11/26 12:12:51;;;;;;;12.70;4.13;;;9.50;99.90;;;;;;5060499;28;19924;-78
2022/11/26 12:15:29;;;;;;;12.20;3.88;;;9.50;99.90;;;;;;5077667;28;20044;-78
2022/11/26 12:18:04;;;;;;;16.23;4.53;;;9.50;99.90;;;;;;5077040;28;20527;-78
2022/11/26 12:20:35;;;;;;;9.75;3.20;;;9.50;99.90;;;;;;5077909;28;20047;-77
2022/11/26 12:23:30;;;;;;;10.85;5.18;;;11.20;99.90;;;;;;5061215;28;20047;-77
2022/11/26 12:26:19;;;;;;;12.40;3.78;;;9.80;99.90;;;;;;5041888;28;20040;-84
2022/11/26 12:28:59;;;;;;;23.65;5.75;;;10.00;99.90;;;;;;5042546;28;20052;-84
2022/11/26 12:31:37;;;;;;;11.85;3.70;;;10.10;99.90;;;;;;5078614;28;20048;-84
2022/11/26 12:34:26;;;;;;;15.35;3.80;;;10.20;99.90;;;;;;5078045;28;20056;-83
2022/11/26 12:37:02;;;;;;;18.00;3.80;;;10.20;99.90;;;;;;5051118;28;20486;-80
2022/11/26 12:39:31;;;;;;;12.82;3.60;;;10.30;99.90;;;;;;5059697;28;20125;-79
2022/11/26 12:42:18;;;;;;;17.08;4.53;;;10.30;99.90;;;;;;5060433;28;20056;-79
2022/11/26 12:44:48;;;;;;;14.65;3.78;;;10.30;99.90;;;;;;5076940;28;20392;-79
2022/11/26 12:47:20;;;;;;;10.55;3.05;;;10.30;99.90;;;;;;5076028;28;20039;-79
2022/11/26 12:50:04;;;;;;;11.95;3.63;;;10.30;99.90;;;;;;5076370;28;20127;-79
2022/11/26 12:53:08;;;;;;;12.00;3.42;;;10.20;99.90;;;;;;5056871;28;20530;-79
2022/11/26 12:56:20;;;;;;;8.90;3.67;;;10.10;99.90;;;;;;5074506;28;20088;-79
2022/11/26 12:58:56;;;;;;;8.05;3.70;;;10.10;99.90;;;;;;5061952;28;20101;-80
2022/11/26 13:01:23;;;;;;;13.98;4.03;;;10.00;99.90;;;;;;5076246;28;20101;-79
2022/11/26 13:03:50;;;;;;;12.27;3.70;;;10.00;99.90;;;;;;5077319;28;20486;-80
2022/11/26 13:06:15;;;;;;;12.60;3.70;;;9.90;99.90;;;;;;5076486;28;20040;-80
2022/11/26 13:09:19;;;;;;;14.77;4.40;;;9.90;99.90;;;;;;5076656;28;20053;-79
2022/11/26 13:11:59;;;;;;;12.05;4.70;;;9.80;99.90;;;;;;5035576;28;20044;-78
2022/11/26 13:14:52;;;;;;;8.93;3.85;;;9.70;99.90;;;;;;5076915;28;20074;-78